createdAt,value
2017-10-14T13:14:51.001Z,4.73
2017-10-14T13:17:19.071Z,4.60
2017-10-14T13:19:47.161Z,4.80
2017-10-14T13:22:15.232Z,3.73
2017-10-14T13:24:43.333Z,11.50
2017-10-14T13:27:11.414Z,9.20
2017-10-14T13:29:39.519Z,28.10
2017-10-14T13:32:07.712Z,10.87
2017-10-14T13:34:35.898Z,5.90
2017-10-14T13:37:03.976Z,4.87
2017-10-14T13:39:32.236Z,5.73
2017-10-14T13:42:00.306Z,4.93
2017-10-14T13:44:28.452Z,6.57
2017-10-14T13:46:56.647Z,5.57
2017-10-14T13:49:24.727Z,5.03
2017-10-14T13:51:52.808Z,4.50
2017-10-14T13:54:20.888Z,4.17
2017-10-14T13:56:49.811Z,6.30
2017-10-14T13:59:18.215Z,3.70
2017-10-14T14:01:46.402Z,5.83
2017-10-14T14:04:14.520Z,6.17
2017-10-14T14:06:42.924Z,4.80
2017-10-14T14:09:11.036Z,5.20
2017-10-14T14:11:39.950Z,4.03
2017-10-14T14:14:08.793Z,4.60
2017-10-14T14:16:36.870Z,5.13
2017-10-14T14:19:04.948Z,4.43
2017-10-14T14:21:33.797Z,3.83
2017-10-14T14:24:01.895Z,4.60
2017-10-14T14:26:29.963Z,4.93
2017-10-14T14:28:58.035Z,4.37
2017-10-14T14:31:26.111Z,3.50
2017-10-14T14:33:54.962Z,3.80
2017-10-14T14:36:23.037Z,4.03
2017-10-14T14:38:51.127Z,4.00
2017-10-14T14:41:19.209Z,4.70
2017-10-14T14:43:47.280Z,4.17
2017-10-14T14:46:15.439Z,4.40
2017-10-14T14:48:43.520Z,5.53
2017-10-14T14:51:12.420Z,5.33
2017-10-14T14:53:40.502Z,6.20
2017-10-14T14:56:08.576Z,4.73
2017-10-14T14:58:36.656Z,5.63
2017-10-14T15:01:04.738Z,13.13
2017-10-14T15:03:32.838Z,30.50
2017-10-14T15:06:00.931Z,12.27
2017-10-14T15:08:29.124Z,5.10
2017-10-14T15:10:57.324Z,6.73
2017-10-14T15:13:25.408Z,8.80
2017-10-14T15:15:53.592Z,12.30
2017-10-14T15:18:21.683Z,4.00
2017-10-14T15:20:49.872Z,3.70
2017-10-14T15:23:17.952Z,4.47
2017-10-14T15:25:46.035Z,4.13
2017-10-14T15:28:14.115Z,3.57
2017-10-14T15:30:42.202Z,5.40
2017-10-14T15:33:10.292Z,5.93
2017-10-14T15:35:38.389Z,4.90
2017-10-14T15:38:06.468Z,4.33
2017-10-14T15:40:35.382Z,5.70
2017-10-14T15:43:03.481Z,6.37
2017-10-14T15:45:31.579Z,3.50
2017-10-14T15:47:59.659Z,4.60
2017-10-14T15:50:27.924Z,4.50
2017-10-14T15:52:56.073Z,4.07
2017-10-14T15:55:24.170Z,4.53
2017-10-14T15:57:52.250Z,5.70
2017-10-14T16:00:21.104Z,4.80
2017-10-14T16:02:49.187Z,5.03
2017-10-14T16:05:17.293Z,6.07
2017-10-14T16:07:46.131Z,5.70
2017-10-14T16:10:14.238Z,6.60
2017-10-14T16:12:43.087Z,6.13
2017-10-14T16:15:11.174Z,9.57
2017-10-14T16:17:39.271Z,6.70
2017-10-14T16:20:08.125Z,6.00
2017-10-14T16:22:36.244Z,5.80
2017-10-14T16:25:04.315Z,5.60
2017-10-14T16:27:32.400Z,6.20
2017-10-14T16:30:00.500Z,8.03
2017-10-14T16:32:29.735Z,5.63
2017-10-14T16:34:58.578Z,6.20
2017-10-14T16:37:26.922Z,5.20
2017-10-14T16:39:55.020Z,4.20
2017-10-14T16:42:23.095Z,4.67
2017-10-14T16:44:51.186Z,6.10
2017-10-14T16:47:19.275Z,4.23
2017-10-14T16:49:47.364Z,6.47
2017-10-14T16:52:16.216Z,5.57
2017-10-14T16:54:44.291Z,8.93
2017-10-14T16:57:12.358Z,4.13
2017-10-14T17:11:40.172Z,6.97
2017-10-14T17:14:08.248Z,6.40
2017-10-14T17:16:36.327Z,5.97
2017-10-14T17:19:04.404Z,8.87
2017-10-14T17:21:32.499Z,6.10
2017-10-14T17:24:01.343Z,6.03
2017-10-14T17:26:29.433Z,9.23
2017-10-14T17:28:57.509Z,6.53
2017-10-14T17:31:25.595Z,10.30
2017-10-14T17:33:54.455Z,10.50
2017-10-14T17:36:22.535Z,9.60
2017-10-14T17:38:50.615Z,9.50
2017-10-14T17:41:18.703Z,8.90
2017-10-14T17:43:47.759Z,13.70
2017-10-14T17:46:15.861Z,11.87
2017-10-14T17:48:44.707Z,7.80
2017-10-14T17:51:12.799Z,12.43
2017-10-14T17:53:40.891Z,10.17
2017-10-14T17:56:09.770Z,13.60
2017-10-14T17:58:37.850Z,6.90
2017-10-14T18:01:05.947Z,7.20
2017-10-14T18:03:34.027Z,10.00
2017-10-14T18:06:02.128Z,9.47
2017-10-14T18:08:30.237Z,9.23
2017-10-14T18:10:58.443Z,6.40
2017-10-14T18:13:26.555Z,7.37
2017-10-14T18:15:54.653Z,5.73
2017-10-14T18:18:23.496Z,5.30
2017-10-14T18:20:51.579Z,11.47
2017-10-14T18:23:19.665Z,5.20
2017-10-14T18:25:47.752Z,4.30
2017-10-14T18:28:16.592Z,5.50
2017-10-14T18:30:44.897Z,6.20
2017-10-14T18:33:12.973Z,10.07
2017-10-14T18:35:41.059Z,15.23
2017-10-14T18:38:09.909Z,13.93
2017-10-14T18:40:37.995Z,11.10
2017-10-14T18:43:06.077Z,7.07
2017-10-14T18:45:34.172Z,12.90
2017-10-14T18:48:02.247Z,15.13
2017-10-14T18:50:30.417Z,9.20
2017-10-14T18:52:58.479Z,6.00
2017-10-14T18:55:26.593Z,7.30
2017-10-14T18:57:54.663Z,6.73
2017-10-14T19:00:22.763Z,5.80
2017-10-14T19:02:50.846Z,8.23
2017-10-14T19:05:18.941Z,7.07
2017-10-14T19:07:47.011Z,8.17
2017-10-14T19:10:15.106Z,13.60
2017-10-14T19:12:43.393Z,6.83
2017-10-14T19:15:12.688Z,5.60
2017-10-14T19:17:41.684Z,10.60
2017-10-14T19:20:09.999Z,10.67
2017-10-14T19:22:38.838Z,10.40
2017-10-14T19:25:06.955Z,11.07
2017-10-14T19:27:35.283Z,10.30
2017-10-14T19:30:03.542Z,9.70
2017-10-14T19:32:31.800Z,8.80
2017-10-14T19:35:00.652Z,8.03
2017-10-14T19:37:28.931Z,7.73
2017-10-14T19:39:57.843Z,8.23
2017-10-14T19:42:25.984Z,6.60
2017-10-14T19:44:54.273Z,8.90
2017-10-14T19:47:23.230Z,10.13
2017-10-14T19:49:51.505Z,9.67
2017-10-14T19:52:19.595Z,9.67
2017-10-14T19:54:48.895Z,7.50
2017-10-14T19:57:17.059Z,9.50
2017-10-14T19:59:45.230Z,11.90
2017-10-14T20:02:13.559Z,7.90
2017-10-14T20:04:42.579Z,8.83
2017-10-14T20:07:10.889Z,9.13
2017-10-14T20:09:39.070Z,13.40
2017-10-14T20:12:08.056Z,11.43
2017-10-14T20:14:37.282Z,17.70
2017-10-14T20:17:05.531Z,10.37
2017-10-14T20:19:33.589Z,8.40
2017-10-14T20:22:01.912Z,11.10
2017-10-14T20:24:30.147Z,9.53
2017-10-14T20:26:58.520Z,10.47
2017-10-14T20:29:26.682Z,9.50
2017-10-14T20:31:54.776Z,11.27
2017-10-14T20:34:23.625Z,12.47
2017-10-14T20:36:51.711Z,10.57
2017-10-14T20:39:19.791Z,13.80
2017-10-14T20:41:47.876Z,9.93
2017-10-14T20:44:16.727Z,12.27
2017-10-14T20:46:44.937Z,13.10
2017-10-14T20:49:13.785Z,10.47
2017-10-14T20:51:42.265Z,13.70
2017-10-14T20:54:10.351Z,11.67
2017-10-14T20:56:38.440Z,16.97
2017-10-14T20:59:07.295Z,11.43
2017-10-14T21:01:35.387Z,13.23
2017-10-14T21:04:03.471Z,15.20
2017-10-14T21:06:32.331Z,17.37
2017-10-14T21:09:00.412Z,15.47
2017-10-14T21:11:28.499Z,14.83
2017-10-14T21:13:57.347Z,14.80
2017-10-14T21:16:25.436Z,14.10
2017-10-14T21:18:53.519Z,21.13
2017-10-14T21:21:21.606Z,20.23
2017-10-14T21:23:50.465Z,16.00
2017-10-14T21:26:19.335Z,15.30
2017-10-14T21:28:47.418Z,15.17
2017-10-14T21:31:15.507Z,15.00
2017-10-14T21:33:43.603Z,13.33
2017-10-14T21:36:11.710Z,14.93
2017-10-14T21:38:39.795Z,17.17
2017-10-14T21:41:07.892Z,18.30
2017-10-14T21:43:35.992Z,16.97
2017-10-14T21:46:04.137Z,17.30
2017-10-14T21:48:32.276Z,13.40
2017-10-14T21:51:00.422Z,12.47
2017-10-14T21:53:28.521Z,17.00
2017-10-14T21:55:56.627Z,17.10
2017-10-14T21:58:24.712Z,13.93
2017-10-14T22:00:52.799Z,18.33
2017-10-14T22:03:20.900Z,14.77
2017-10-14T22:05:48.988Z,16.10
2017-10-14T22:08:17.175Z,13.70
2017-10-14T22:10:45.264Z,20.23
2017-10-14T22:13:13.352Z,16.23
2017-10-14T22:15:41.590Z,18.57
2017-10-14T22:18:10.443Z,14.20
2017-10-14T22:20:38.528Z,14.80
2017-10-14T22:23:06.618Z,14.03
2017-10-14T22:25:35.471Z,14.10
2017-10-14T22:28:03.599Z,13.83
2017-10-14T22:30:32.431Z,12.80
2017-10-14T22:33:00.519Z,12.77
2017-10-14T22:35:28.681Z,12.40
2017-10-14T22:37:56.772Z,12.30
2017-10-14T22:40:25.763Z,15.10
2017-10-14T22:42:54.632Z,14.37
2017-10-14T22:45:22.772Z,12.17
2017-10-14T22:47:50.867Z,11.20
2017-10-14T22:50:18.964Z,12.40
2017-10-14T22:52:47.849Z,12.57
2017-10-14T22:55:15.935Z,14.50
2017-10-14T22:57:44.801Z,14.00
2017-10-14T23:00:12.891Z,12.87
2017-10-14T23:02:41.759Z,12.60
2017-10-14T23:05:09.847Z,11.70
2017-10-14T23:07:38.720Z,13.43
2017-10-14T23:10:06.818Z,15.37
2017-10-14T23:12:35.676Z,15.23
2017-10-14T23:15:03.792Z,14.43
2017-10-14T23:17:31.951Z,12.73
2017-10-14T23:20:00.047Z,16.90
2017-10-14T23:22:28.140Z,13.83
2017-10-14T23:24:56.241Z,16.73
2017-10-14T23:27:24.419Z,16.53
2017-10-14T23:29:52.513Z,14.57
2017-10-14T23:32:20.767Z,14.63
2017-10-14T23:34:48.856Z,13.60
2017-10-14T23:37:17.919Z,14.13
2017-10-14T23:39:46.019Z,14.43
2017-10-14T23:42:14.884Z,13.47
2017-10-14T23:44:42.984Z,17.77
2017-10-14T23:47:11.829Z,19.00
2017-10-14T23:49:39.913Z,17.13
2017-10-14T23:52:08.012Z,17.17
2017-10-14T23:54:36.098Z,16.67
2017-10-14T23:57:04.198Z,13.30
2017-10-14T23:59:32.288Z,11.37
